sensor_id;sensor_type;location;lat;lon;timestamp;temperature;humidity
57242;DHT22;43095;53.302;5.786;2022-11-15T00:01:59;8.30;99.90
57242;DHT22;43095;53.302;5.786;2022-11-15T00:04:48;8.30;99.90
57242;DHT22;43095;53.302;5.786;2022-11-15T00:07:34;8.30;99.90
57242;DHT22;43095;53.302;5.786;2022-11-15T00:10:40;8.30;99.90
57242;DHT22;43095;53.302;5.786;2022-11-15T00:13:28;8.30;99.90
57242;DHT22;43095;53.302;5.786;2022-11-15T00:16:15;8.30;99.90
57242;DHT22;43095;53.302;5.786;2022-11-15T00:19:02;8.30;99.90
57242;DHT22;43095;53.302;5.786;2022-11-15T00:21:48;8.30;99.90
57242;DHT22;43095;53.302;5.786;2022-11-15T00:24:34;8.30;99.90
57242;DHT22;43095;53.302;5.786;2022-11-15T00:27:20;8.30;99.90
57242;DHT22;43095;53.302;5.786;2022-11-15T00:30:06;8.20;99.90
57242;DHT22;43095;53.302;5.786;2022-11-15T00:32:52;8.20;99.90
57242;DHT22;43095;53.302;5.786;2022-11-15T00:35:39;8.40;99.90
57242;DHT22;43095;53.302;5.786;2022-11-15T00:38:24;8.20;99.90
57242;DHT22;43095;53.302;5.786;2022-11-15T00:41:10;8.20;99.90
57242;DHT22;43095;53.302;5.786;2022-11-15T00:43:56;8.20;99.90
57242;DHT22;43095;53.302;5.786;2022-11-15T00:46:42;8.20;99.90
57242;DHT22;43095;53.302;5.786;2022-11-15T00:49:28;8.20;99.90
57242;DHT22;43095;53.302;5.786;2022-11-15T00:52:14;8.20;99.90
57242;DHT22;43095;53.302;5.786;2022-11-15T00:55:00;8.20;99.90
57242;DHT22;43095;53.302;5.786;2022-11-15T00:57:46;8.20;99.90
57242;DHT22;43095;53.302;5.786;2022-11-15T01:00:32;8.20;99.90
57242;DHT22;43095;53.302;5.786;2022-11-15T01:03:18;8.20;99.90
57242;DHT22;43095;53.302;5.786;2022-11-15T01:06:05;8.20;99.90
57242;DHT22;43095;53.302;5.786;2022-11-15T01:08:51;8.20;99.90
57242;DHT22;43095;53.302;5.786;2022-11-15T01:11:37;8.20;99.90
57242;DHT22;43095;53.302;5.786;2022-11-15T01:14:22;8.10;99.90
57242;DHT22;43095;53.302;5.786;2022-11-15T01:17:10;8.10;99.90
57242;DHT22;43095;53.302;5.786;2022-11-15T01:19:56;8.00;99.90
57242;DHT22;43095;53.302;5.786;2022-11-15T01:22:41;8.10;99.90
57242;DHT22;43095;53.302;5.786;2022-11-15T01:25:27;8.00;99.90
57242;DHT22;43095;53.302;5.786;2022-11-15T01:28:13;7.90;99.90
57242;DHT22;43095;53.302;5.786;2022-11-15T01:31:03;7.90;99.90
57242;DHT22;43095;53.302;5.786;2022-11-15T01:33:49;7.90;99.90
57242;DHT22;43095;53.302;5.786;2022-11-15T01:36:35;7.90;99.90
57242;DHT22;43095;53.302;5.786;2022-11-15T01:39:21;7.80;99.90
57242;DHT22;43095;53.302;5.786;2022-11-15T01:42:12;7.90;99.90
57242;DHT22;43095;53.302;5.786;2022-11-15T01:44:58;8.00;99.90
57242;DHT22;43095;53.302;5.786;2022-11-15T01:47:51;7.80;99.90
57242;DHT22;43095;53.302;5.786;2022-11-15T01:50:38;7.80;99.90
57242;DHT22;43095;53.302;5.786;2022-11-15T01:53:24;7.80;99.90
57242;DHT22;43095;53.302;5.786;2022-11-15T01:56:16;7.80;99.90
57242;DHT22;43095;53.302;5.786;2022-11-15T01:59:04;7.80;99.90
57242;DHT22;43095;53.302;5.786;2022-11-15T02:08:38;7.60;99.90
57242;DHT22;43095;53.302;5.786;2022-11-15T02:11:24;7.50;99.90
57242;DHT22;43095;53.302;5.786;2022-11-15T02:14:14;7.40;99.90
57242;DHT22;43095;53.302;5.786;2022-11-15T02:32:45;7.00;99.90
57242;DHT22;43095;53.302;5.786;2022-11-15T02:36:02;7.00;99.90
57242;DHT22;43095;53.302;5.786;2022-11-15T02:42:11;6.90;99.90
57242;DHT22;43095;53.302;5.786;2022-11-15T02:45:23;6.80;99.90
57242;DHT22;43095;53.302;5.786;2022-11-15T02:48:11;6.80;99.90
57242;DHT22;43095;53.302;5.786;2022-11-15T02:50:58;6.80;99.90
57242;DHT22;43095;53.302;5.786;2022-11-15T02:53:44;6.80;99.90
57242;DHT22;43095;53.302;5.786;2022-11-15T02:56:30;6.80;99.90
57242;DHT22;43095;53.302;5.786;2022-11-15T03:09:14;6.80;99.90
57242;DHT22;43095;53.302;5.786;2022-11-15T03:12:08;6.90;99.90
57242;DHT22;43095;53.302;5.786;2022-11-15T03:14:58;6.90;99.90
57242;DHT22;43095;53.302;5.786;2022-11-15T03:20:39;7.00;99.90
57242;DHT22;43095;53.302;5.786;2022-11-15T03:23:25;6.90;99.90
57242;DHT22;43095;53.302;5.786;2022-11-15T03:26:14;6.90;99.90
57242;DHT22;43095;53.302;5.786;2022-11-15T03:29:31;6.90;99.90
57242;DHT22;43095;53.302;5.786;2022-11-15T03:32:20;7.00;99.90
57242;DHT22;43095;53.302;5.786;2022-11-15T03:35:14;6.90;99.90
57242;DHT22;43095;53.302;5.786;2022-11-15T03:38:24;7.00;99.90
57242;DHT22;43095;53.302;5.786;2022-11-15T03:41:30;7.00;99.90
57242;DHT22;43095;53.302;5.786;2022-11-15T03:47:38;7.00;99.90
57242;DHT22;43095;53.302;5.786;2022-11-15T03:50:26;7.00;99.90
57242;DHT22;43095;53.302;5.786;2022-11-15T03:53:12;7.00;99.90
57242;DHT22;43095;53.302;5.786;2022-11-15T03:55:58;7.00;99.90
57242;DHT22;43095;53.302;5.786;2022-11-15T03:58:44;7.10;99.90
57242;DHT22;43095;53.302;5.786;2022-11-15T04:01:32;7.10;99.90
57242;DHT22;43095;53.302;5.786;2022-11-15T04:04:18;7.10;99.90
57242;DHT22;43095;53.302;5.786;2022-11-15T04:07:03;7.10;99.90
57242;DHT22;43095;53.302;5.786;2022-11-15T04:09:49;7.10;99.90
57242;DHT22;43095;53.302;5.786;2022-11-15T04:12:47;7.20;99.90
57242;DHT22;43095;53.302;5.786;2022-11-15T04:15:33;7.20;99.90
57242;DHT22;43095;53.302;5.786;2022-11-15T04:18:19;7.20;99.90
57242;DHT22;43095;53.302;5.786;2022-11-15T04:21:04;7.30;99.90
57242;DHT22;43095;53.302;5.786;2022-11-15T04:24:09;7.20;99.90
57242;DHT22;43095;53.302;5.786;2022-11-15T04:26:57;7.20;99.90
57242;DHT22;43095;53.302;5.786;2022-11-15T04:29:43;7.30;99.90
57242;DHT22;43095;53.302;5.786;2022-11-15T04:32:29;7.30;99.90
57242;DHT22;43095;53.302;5.786;2022-11-15T04:35:14;7.30;99.90
57242;DHT22;43095;53.302;5.786;2022-11-15T04:38:02;7.40;99.90
57242;DHT22;43095;53.302;5.786;2022-11-15T04:40:48;7.40;99.90
57242;DHT22;43095;53.302;5.786;2022-11-15T04:43:34;7.40;99.90
57242;DHT22;43095;53.302;5.786;2022-11-15T04:46:20;7.40;99.90
57242;DHT22;43095;53.302;5.786;2022-11-15T04:49:06;7.50;99.90
57242;DHT22;43095;53.302;5.786;2022-11-15T04:51:51;7.50;99.90
57242;DHT22;43095;53.302;5.786;2022-11-15T04:54:37;7.50;99.90
57242;DHT22;43095;53.302;5.786;2022-11-15T04:57:22;7.60;99.90
57242;DHT22;43095;53.302;5.786;2022-11-15T05:00:13;7.50;99.90
57242;DHT22;43095;53.302;5.786;2022-11-15T05:02:59;7.60;99.90
57242;DHT22;43095;53.302;5.786;2022-11-15T05:06:03;7.60;99.90
57242;DHT22;43095;53.302;5.786;2022-11-15T05:08:49;7.70;99.90
57242;DHT22;43095;53.302;5.786;2022-11-15T05:11:35;7.70;99.90
57242;DHT22;43095;53.302;5.786;2022-11-15T05:14:20;7.70;99.90
57242;DHT22;43095;53.302;5.786;2022-11-15T05:17:06;7.80;99.90
57242;DHT22;43095;53.302;5.786;2022-11-15T05:19:52;7.80;99.90
57242;DHT22;43095;53.302;5.786;2022-11-15T05:22:38;7.80;99.90
57242;DHT22;43095;53.302;5.786;2022-11-15T05:25:24;7.90;99.90
57242;DHT22;43095;53.302;5.786;2022-11-15T05:28:09;8.00;99.90
57242;DHT22;43095;53.302;5.786;2022-11-15T05:31:12;8.00;99.90
57242;DHT22;43095;53.302;5.786;2022-11-15T05:33:59;8.00;99.90
57242;DHT22;43095;53.302;5.786;2022-11-15T05:36:45;8.00;99.90
57242;DHT22;43095;53.302;5.786;2022-11-15T05:39:31;8.10;99.90
57242;DHT22;43095;53.302;5.786;2022-11-15T05:42:16;8.10;99.90
57242;DHT22;43095;53.302;5.786;2022-11-15T05:45:05;8.30;99.90
57242;DHT22;43095;53.302;5.786;2022-11-15T05:47:52;8.20;99.90
57242;DHT22;43095;53.302;5.786;2022-11-15T05:50:41;8.20;99.90
57242;DHT22;43095;53.302;5.786;2022-11-15T05:53:28;8.30;99.90
57242;DHT22;43095;53.302;5.786;2022-11-15T05:56:14;8.30;99.90
57242;DHT22;43095;53.302;5.786;2022-11-15T05:59:00;8.40;99.90
57242;DHT22;43095;53.302;5.786;2022-11-15T06:01:46;8.50;99.90
57242;DHT22;43095;53.302;5.786;2022-11-15T06:04:32;8.50;99.90
57242;DHT22;43095;53.302;5.786;2022-11-15T06:07:18;8.50;99.90
57242;DHT22;43095;53.302;5.786;2022-11-15T06:10:04;8.60;99.90
57242;DHT22;43095;53.302;5.786;2022-11-15T06:13:04;8.60;99.90
57242;DHT22;43095;53.302;5.786;2022-11-15T06:15:50;8.70;99.90
57242;DHT22;43095;53.302;5.786;2022-11-15T06:18:37;8.70;99.90
57242;DHT22;43095;53.302;5.786;2022-11-15T06:21:22;8.70;99.90
57242;DHT22;43095;53.302;5.786;2022-11-15T06:24:08;8.70;99.90
57242;DHT22;43095;53.302;5.786;2022-11-15T06:26:54;8.80;99.90
57242;DHT22;43095;53.302;5.786;2022-11-15T06:29:40;8.90;99.90
57242;DHT22;43095;53.302;5.786;2022-11-15T06:32:26;8.90;99.90
57242;DHT22;43095;53.302;5.786;2022-11-15T06:35:11;9.00;99.90
57242;DHT22;43095;53.302;5.786;2022-11-15T06:38:06;9.00;99.90
57242;DHT22;43095;53.302;5.786;2022-11-15T06:40:52;9.10;99.90
57242;DHT22;43095;53.302;5.786;2022-11-15T06:43:38;9.10;99.90
57242;DHT22;43095;53.302;5.786;2022-11-15T06:46:23;9.20;99.90
57242;DHT22;43095;53.302;5.786;2022-11-15T06:49:09;9.20;99.90
57242;DHT22;43095;53.302;5.786;2022-11-15T06:51:54;9.20;99.90
57242;DHT22;43095;53.302;5.786;2022-11-15T06:54:40;9.20;99.90
57242;DHT22;43095;53.302;5.786;2022-11-15T06:57:26;9.30;99.90
57242;DHT22;43095;53.302;5.786;2022-11-15T07:00:12;9.30;99.90
57242;DHT22;43095;53.302;5.786;2022-11-15T07:03:00;9.40;99.90
57242;DHT22;43095;53.302;5.786;2022-11-15T07:05:53;9.40;99.90
57242;DHT22;43095;53.302;5.786;2022-11-15T07:08:40;9.50;99.90
57242;DHT22;43095;53.302;5.786;2022-11-15T07:11:27;9.50;99.90
57242;DHT22;43095;53.302;5.786;2022-11-15T07:14:12;9.50;99.90
57242;DHT22;43095;53.302;5.786;2022-11-15T07:16:58;9.60;99.90
57242;DHT22;43095;53.302;5.786;2022-11-15T07:19:44;9.60;99.90
57242;DHT22;43095;53.302;5.786;2022-11-15T07:22:30;9.60;99.90
57242;DHT22;43095;53.302;5.786;2022-11-15T07:25:15;9.70;99.90
57242;DHT22;43095;53.302;5.786;2022-11-15T07:28:01;9.70;99.90
57242;DHT22;43095;53.302;5.786;2022-11-15T07:30:47;9.80;99.90
57242;DHT22;43095;53.302;5.786;2022-11-15T07:33:33;9.80;99.90
57242;DHT22;43095;53.302;5.786;2022-11-15T07:36:19;9.80;99.90
57242;DHT22;43095;53.302;5.786;2022-11-15T07:39:04;9.80;99.90
57242;DHT22;43095;53.302;5.786;2022-11-15T07:41:50;9.90;99.90
57242;DHT22;43095;53.302;5.786;2022-11-15T07:44:55;9.90;99.90
57242;DHT22;43095;53.302;5.786;2022-11-15T07:47:45;10.00;99.90
57242;DHT22;43095;53.302;5.786;2022-11-15T07:50:31;10.00;99.90
57242;DHT22;43095;53.302;5.786;2022-11-15T07:53:17;10.00;99.90
57242;DHT22;43095;53.302;5.786;2022-11-15T07:56:08;10.10;99.90
57242;DHT22;43095;53.302;5.786;2022-11-15T07:58:54;10.10;99.90
57242;DHT22;43095;53.302;5.786;2022-11-15T08:01:40;10.10;99.90
57242;DHT22;43095;53.302;5.786;2022-11-15T08:04:26;10.20;99.90
57242;DHT22;43095;53.302;5.786;2022-11-15T08:07:12;10.20;99.90
57242;DHT22;43095;53.302;5.786;2022-11-15T08:09:59;10.20;99.90
57242;DHT22;43095;53.302;5.786;2022-11-15T08:12:46;10.30;99.90
57242;DHT22;43095;53.302;5.786;2022-11-15T08:15:33;10.30;99.90
57242;DHT22;43095;53.302;5.786;2022-11-15T08:18:20;10.40;99.90
57242;DHT22;43095;53.302;5.786;2022-11-15T08:21:05;10.40;99.90
57242;DHT22;43095;53.302;5.786;2022-11-15T08:23:51;10.40;99.90
57242;DHT22;43095;53.302;5.786;2022-11-15T08:26:37;10.50;99.90
57242;DHT22;43095;53.302;5.786;2022-11-15T08:29:23;10.50;99.90
57242;DHT22;43095;53.302;5.786;2022-11-15T08:32:10;10.50;99.90
57242;DHT22;43095;53.302;5.786;2022-11-15T08:34:56;10.50;99.90
57242;DHT22;43095;53.302;5.786;2022-11-15T08:37:42;10.50;99.90
57242;DHT22;43095;53.302;5.786;2022-11-15T08:40:27;10.60;99.90
57242;DHT22;43095;53.302;5.786;2022-11-15T08:43:13;10.60;99.90
57242;DHT22;43095;53.302;5.786;2022-11-15T08:45:59;10.60;99.90
57242;DHT22;43095;53.302;5.786;2022-11-15T08:48:44;10.70;99.90
57242;DHT22;43095;53.302;5.786;2022-11-15T08:51:30;10.70;99.90
57242;DHT22;43095;53.302;5.786;2022-11-15T08:54:16;10.80;99.90
57242;DHT22;43095;53.302;5.786;2022-11-15T08:57:02;10.90;99.90
57242;DHT22;43095;53.302;5.786;2022-11-15T08:59:48;11.00;99.90
57242;DHT22;43095;53.302;5.786;2022-11-15T09:02:34;11.00;99.90
57242;DHT22;43095;53.302;5.786;2022-11-15T09:05:19;11.00;99.90
57242;DHT22;43095;53.302;5.786;2022-11-15T09:08:06;11.10;99.90
57242;DHT22;43095;53.302;5.786;2022-11-15T09:11:11;11.00;99.90
57242;DHT22;43095;53.302;5.786;2022-11-15T09:13:58;11.10;99.90
57242;DHT22;43095;53.302;5.786;2022-11-15T09:16:43;11.10;99.90
57242;DHT22;43095;53.302;5.786;2022-11-15T09:19:29;11.10;99.90
57242;DHT22;43095;53.302;5.786;2022-11-15T09:22:15;11.10;99.90
57242;DHT22;43095;53.302;5.786;2022-11-15T09:25:01;11.20;99.90
57242;DHT22;43095;53.302;5.786;2022-11-15T09:27:47;11.20;99.90
57242;DHT22;43095;53.302;5.786;2022-11-15T09:30:33;11.20;99.90
57242;DHT22;43095;53.302;5.786;2022-11-15T09:33:18;11.20;99.90
57242;DHT22;43095;53.302;5.786;2022-11-15T09:36:06;11.30;99.90
57242;DHT22;43095;53.302;5.786;2022-11-15T09:38:52;11.30;99.90
57242;DHT22;43095;53.302;5.786;2022-11-15T09:44:41;11.30;99.90
57242;DHT22;43095;53.302;5.786;2022-11-15T09:52:55;11.40;99.90
57242;DHT22;43095;53.302;5.786;2022-11-15T09:55:31;11.50;99.90
57242;DHT22;43095;53.302;5.786;2022-11-15T09:58:25;11.50;99.90
57242;DHT22;43095;53.302;5.786;2022-11-15T10:00:53;11.50;99.90
57242;DHT22;43095;53.302;5.786;2022-11-15T10:03:40;11.50;99.90
57242;DHT22;43095;53.302;5.786;2022-11-15T10:06:21;11.50;99.90
57242;DHT22;43095;53.302;5.786;2022-11-15T10:09:01;11.40;99.90
57242;DHT22;43095;53.302;5.786;2022-11-15T10:11:31;11.40;99.90
57242;DHT22;43095;53.302;5.786;2022-11-15T10:14:23;11.40;99.90
57242;DHT22;43095;53.302;5.786;2022-11-15T10:17:22;11.40;99.90
57242;DHT22;43095;53.302;5.786;2022-11-15T10:20:07;11.40;99.90
57242;DHT22;43095;53.302;5.786;2022-11-15T10:22:55;11.40;99.90
57242;DHT22;43095;53.302;5.786;2022-11-15T10:25:28;11.50;99.90
57242;DHT22;43095;53.302;5.786;2022-11-15T10:28:01;11.50;99.90
57242;DHT22;43095;53.302;5.786;2022-11-15T10:30:36;11.60;99.90
57242;DHT22;43095;53.302;5.786;2022-11-15T10:33:36;11.70;99.90
57242;DHT22;43095;53.302;5.786;2022-11-15T10:38:56;11.70;99.90
57242;DHT22;43095;53.302;5.786;2022-11-15T10:44:31;11.80;99.90
57242;DHT22;43095;53.302;5.786;2022-11-15T10:49:27;11.90;99.90
57242;DHT22;43095;53.302;5.786;2022-11-15T10:52:01;11.90;99.90
57242;DHT22;43095;53.302;5.786;2022-11-15T10:54:35;12.00;99.90
57242;DHT22;43095;53.302;5.786;2022-11-15T10:57:10;12.10;99.90
57242;DHT22;43095;53.302;5.786;2022-11-15T10:59:42;12.10;99.90
57242;DHT22;43095;53.302;5.786;2022-11-15T11:02:38;12.20;99.90
57242;DHT22;43095;53.302;5.786;2022-11-15T11:05:34;12.20;99.90
57242;DHT22;43095;53.302;5.786;2022-11-15T11:10:38;12.20;99.90
57242;DHT22;43095;53.302;5.786;2022-11-15T11:13:28;12.30;99.90
57242;DHT22;43095;53.302;5.786;2022-11-15T11:19:30;12.40;99.90
57242;DHT22;43095;53.302;5.786;2022-11-15T11:28:06;12.40;99.90
57242;DHT22;43095;53.302;5.786;2022-11-15T11:31:00;12.40;99.90
57242;DHT22;43095;53.302;5.786;2022-11-15T11:36:19;12.40;99.90
57242;DHT22;43095;53.302;5.786;2022-11-15T11:47:33;12.40;99.90
57242;DHT22;43095;53.302;5.786;2022-11-15T11:50:28;12.40;99.90
57242;DHT22;43095;53.302;5.786;2022-11-15T11:55:47;12.40;99.90
57242;DHT22;43095;53.302;5.786;2022-11-15T11:58:43;12.40;99.90
57242;DHT22;43095;53.302;5.786;2022-11-15T12:04:11;12.50;99.90
57242;DHT22;43095;53.302;5.786;2022-11-15T12:07:01;12.60;99.90
57242;DHT22;43095;53.302;5.786;2022-11-15T12:09:32;12.70;99.90
57242;DHT22;43095;53.302;5.786;2022-11-15T12:12:23;12.70;99.90
57242;DHT22;43095;53.302;5.786;2022-11-15T12:14:59;12.90;99.90
57242;DHT22;43095;53.302;5.786;2022-11-15T12:17:32;13.10;99.90
57242;DHT22;43095;53.302;5.786;2022-11-15T12:20:02;13.20;99.90
57242;DHT22;43095;53.302;5.786;2022-11-15T12:22:38;13.20;99.90
57242;DHT22;43095;53.302;5.786;2022-11-15T12:30:21;13.10;99.90
57242;DHT22;43095;53.302;5.786;2022-11-15T12:32:55;13.10;99.90
57242;DHT22;43095;53.302;5.786;2022-11-15T12:38:02;13.30;99.90
57242;DHT22;43095;53.302;5.786;2022-11-15T12:41:15;13.20;99.90
57242;DHT22;43095;53.302;5.786;2022-11-15T12:43:45;13.20;99.90
57242;DHT22;43095;53.302;5.786;2022-11-15T13:00:49;13.40;99.90
57242;DHT22;43095;53.302;5.786;2022-11-15T13:03:19;13.30;99.90
57242;DHT22;43095;53.302;5.786;2022-11-15T13:05:55;13.30;99.90
57242;DHT22;43095;53.302;5.786;2022-11-15T13:08:55;13.20;99.90
57242;DHT22;43095;53.302;5.786;2022-11-15T13:11:42;13.10;99.90
57242;DHT22;43095;53.302;5.786;2022-11-15T13:14:51;13.00;99.90
57242;DHT22;43095;53.302;5.786;2022-11-15T13:19:58;13.00;99.90
57242;DHT22;43095;53.302;5.786;2022-11-15T13:22:28;13.00;99.90
57242;DHT22;43095;53.302;5.786;2022-11-15T13:28:37;13.20;99.90
57242;DHT22;43095;53.302;5.786;2022-11-15T13:33:53;13.50;99.90
57242;DHT22;43095;53.302;5.786;2022-11-15T13:36:30;13.50;99.90
57242;DHT22;43095;53.302;5.786;2022-11-15T13:41:31;13.30;99.90
57242;DHT22;43095;53.302;5.786;2022-11-15T13:44:01;13.20;99.90
57242;DHT22;43095;53.302;5.786;2022-11-15T13:46:31;13.20;99.90
57242;DHT22;43095;53.302;5.786;2022-11-15T13:49:09;13.10;99.90
57242;DHT22;43095;53.302;5.786;2022-11-15T13:51:53;13.10;99.90
57242;DHT22;43095;53.302;5.786;2022-11-15T13:55:14;13.10;99.90
57242;DHT22;43095;53.302;5.786;2022-11-15T13:57:22;13.00;99.90
57242;DHT22;43095;53.302;5.786;2022-11-15T13:59:55;12.90;99.90
57242;DHT22;43095;53.302;5.786;2022-11-15T14:02:30;13.00;99.90
57242;DHT22;43095;53.302;5.786;2022-11-15T14:07:28;12.90;99.90
57242;DHT22;43095;53.302;5.786;2022-11-15T14:09:56;12.80;99.90
57242;DHT22;43095;53.302;5.786;2022-11-15T14:12:26;12.70;99.90
57242;DHT22;43095;53.302;5.786;2022-11-15T14:14:54;12.70;99.90
57242;DHT22;43095;53.302;5.786;2022-11-15T14:17:34;12.60;99.90
57242;DHT22;43095;53.302;5.786;2022-11-15T14:20:18;12.60;99.90
57242;DHT22;43095;53.302;5.786;2022-11-15T14:22:55;12.50;99.90
57242;DHT22;43095;53.302;5.786;2022-11-15T14:25:24;12.50;99.90
57242;DHT22;43095;53.302;5.786;2022-11-15T14:28:13;12.40;99.90
57242;DHT22;43095;53.302;5.786;2022-11-15T14:30:42;12.40;99.90
57242;DHT22;43095;53.302;5.786;2022-11-15T14:33:35;12.20;99.90
57242;DHT22;43095;53.302;5.786;2022-11-15T14:36:11;12.30;99.90
57242;DHT22;43095;53.302;5.786;2022-11-15T14:38:39;12.20;99.90
57242;DHT22;43095;53.302;5.786;2022-11-15T14:43:46;12.10;99.90
57242;DHT22;43095;53.302;5.786;2022-11-15T14:46:13;12.00;99.90
57242;DHT22;43095;53.302;5.786;2022-11-15T14:48:40;12.00;99.90
57242;DHT22;43095;53.302;5.786;2022-11-15T14:51:12;12.00;99.90
57242;DHT22;43095;53.302;5.786;2022-11-15T14:53:42;11.90;99.90
57242;DHT22;43095;53.302;5.786;2022-11-15T14:56:11;11.80;99.90
57242;DHT22;43095;53.302;5.786;2022-11-15T14:58:39;11.70;99.90
57242;DHT22;43095;53.302;5.786;2022-11-15T15:01:25;11.70;99.90
57242;DHT22;43095;53.302;5.786;2022-11-15T15:03:53;11.60;99.90
57242;DHT22;43095;53.302;5.786;2022-11-15T15:06:25;11.60;99.90
57242;DHT22;43095;53.302;5.786;2022-11-15T15:08:53;11.50;99.90
57242;DHT22;43095;53.302;5.786;2022-11-15T15:11:25;11.40;99.90
57242;DHT22;43095;53.302;5.786;2022-11-15T15:13:54;11.30;99.90
57242;DHT22;43095;53.302;5.786;2022-11-15T15:16:24;11.30;99.90
57242;DHT22;43095;53.302;5.786;2022-11-15T15:18:52;11.20;99.90
57242;DHT22;43095;53.302;5.786;2022-11-15T15:21:24;11.20;99.90
57242;DHT22;43095;53.302;5.786;2022-11-15T15:23:55;11.10;99.90
57242;DHT22;43095;53.302;5.786;2022-11-15T15:26:25;11.00;99.90
57242;DHT22;43095;53.302;5.786;2022-11-15T15:28:53;11.00;99.90
57242;DHT22;43095;53.302;5.786;2022-11-15T15:31:20;10.90;99.90
57242;DHT22;43095;53.302;5.786;2022-11-15T15:33:47;10.90;99.90
57242;DHT22;43095;53.302;5.786;2022-11-15T15:36:17;10.80;99.90
57242;DHT22;43095;53.302;5.786;2022-11-15T15:38:45;10.80;99.90
57242;DHT22;43095;53.302;5.786;2022-11-15T15:41:14;10.70;99.90
57242;DHT22;43095;53.302;5.786;2022-11-15T15:43:41;10.70;99.90
57242;DHT22;43095;53.302;5.786;2022-11-15T15:46:15;10.60;99.90
57242;DHT22;43095;53.302;5.786;2022-11-15T15:48:43;10.60;99.90
57242;DHT22;43095;53.302;5.786;2022-11-15T15:51:11;10.70;99.90
57242;DHT22;43095;53.302;5.786;2022-11-15T15:53:46;10.60;99.90
57242;DHT22;43095;53.302;5.786;2022-11-15T15:56:14;10.60;99.90
57242;DHT22;43095;53.302;5.786;2022-11-15T15:58:41;10.50;99.90
57242;DHT22;43095;53.302;5.786;2022-11-15T16:01:08;10.50;99.90
57242;DHT22;43095;53.302;5.786;2022-11-15T16:03:35;10.50;99.90
57242;DHT22;43095;53.302;5.786;2022-11-15T16:06:03;10.50;99.90
57242;DHT22;43095;53.302;5.786;2022-11-15T16:08:31;10.40;99.90
57242;DHT22;43095;53.302;5.786;2022-11-15T16:11:19;10.40;99.90
57242;DHT22;43095;53.302;5.786;2022-11-15T16:13:46;10.40;99.90
57242;DHT22;43095;53.302;5.786;2022-11-15T16:16:13;10.40;99.90
57242;DHT22;43095;53.302;5.786;2022-11-15T16:18:40;10.40;99.90
57242;DHT22;43095;53.302;5.786;2022-11-15T16:21:08;10.40;99.90
57242;DHT22;43095;53.302;5.786;2022-11-15T16:23:35;10.40;99.90
57242;DHT22;43095;53.302;5.786;2022-11-15T16:26:14;10.50;99.90
57242;DHT22;43095;53.302;5.786;2022-11-15T16:28:44;10.50;99.90
57242;DHT22;43095;53.302;5.786;2022-11-15T16:31:12;10.50;99.90
57242;DHT22;43095;53.302;5.786;2022-11-15T16:33:39;10.50;99.90
57242;DHT22;43095;53.302;5.786;2022-11-15T16:36:21;10.60;99.90
57242;DHT22;43095;53.302;5.786;2022-11-15T16:38:56;10.60;99.90
57242;DHT22;43095;53.302;5.786;2022-11-15T16:41:23;10.60;99.90
57242;DHT22;43095;53.302;5.786;2022-11-15T16:43:51;10.60;99.90
57242;DHT22;43095;53.302;5.786;2022-11-15T16:46:19;10.70;99.90
57242;DHT22;43095;53.302;5.786;2022-11-15T16:48:47;10.70;99.90
57242;DHT22;43095;53.302;5.786;2022-11-15T16:51:15;10.70;99.90
57242;DHT22;43095;53.302;5.786;2022-11-15T16:53:43;10.70;99.90
57242;DHT22;43095;53.302;5.786;2022-11-15T16:56:23;10.80;99.90
57242;DHT22;43095;53.302;5.786;2022-11-15T16:58:55;10.80;99.90
57242;DHT22;43095;53.302;5.786;2022-11-15T17:01:27;10.80;99.90
57242;DHT22;43095;53.302;5.786;2022-11-15T17:03:55;10.80;99.90
57242;DHT22;43095;53.302;5.786;2022-11-15T17:06:23;10.90;99.90
57242;DHT22;43095;53.302;5.786;2022-11-15T17:08:51;10.80;99.90
57242;DHT22;43095;53.302;5.786;2022-11-15T17:11:21;10.80;99.90
57242;DHT22;43095;53.302;5.786;2022-11-15T17:13:49;10.90;99.90
57242;DHT22;43095;53.302;5.786;2022-11-15T17:16:17;10.90;99.90
57242;DHT22;43095;53.302;5.786;2022-11-15T17:18:44;10.90;99.90
57242;DHT22;43095;53.302;5.786;2022-11-15T17:21:21;10.90;99.90
57242;DHT22;43095;53.302;5.786;2022-11-15T17:23:48;10.90;99.90
57242;DHT22;43095;53.302;5.786;2022-11-15T17:26:18;10.90;99.90
57242;DHT22;43095;53.302;5.786;2022-11-15T17:29:05;11.00;99.90
57242;DHT22;43095;53.302;5.786;2022-11-15T17:31:36;11.00;99.90
57242;DHT22;43095;53.302;5.786;2022-11-15T17:34:05;11.00;99.90
57242;DHT22;43095;53.302;5.786;2022-11-15T17:36:33;11.00;99.90
57242;DHT22;43095;53.302;5.786;2022-11-15T17:39:01;11.10;99.90
57242;DHT22;43095;53.302;5.786;2022-11-15T17:41:29;11.00;99.90
57242;DHT22;43095;53.302;5.786;2022-11-15T17:43:57;11.10;99.90
57242;DHT22;43095;53.302;5.786;2022-11-15T17:46:27;11.10;99.90
57242;DHT22;43095;53.302;5.786;2022-11-15T17:48:55;11.10;99.90
57242;DHT22;43095;53.302;5.786;2022-11-15T17:51:23;11.10;99.90
57242;DHT22;43095;53.302;5.786;2022-11-15T17:53:50;11.10;99.90
57242;DHT22;43095;53.302;5.786;2022-11-15T17:56:21;11.10;99.90
57242;DHT22;43095;53.302;5.786;2022-11-15T17:58:53;11.10;99.90
57242;DHT22;43095;53.302;5.786;2022-11-15T18:01:23;11.10;99.90
57242;DHT22;43095;53.302;5.786;2022-11-15T18:03:53;11.20;99.90
57242;DHT22;43095;53.302;5.786;2022-11-15T18:06:21;11.20;99.90
57242;DHT22;43095;53.302;5.786;2022-11-15T18:08:51;11.20;99.90
57242;DHT22;43095;53.302;5.786;2022-11-15T18:11:20;11.20;99.90
57242;DHT22;43095;53.302;5.786;2022-11-15T18:13:51;11.20;99.90
57242;DHT22;43095;53.302;5.786;2022-11-15T18:16:21;11.20;99.90
57242;DHT22;43095;53.302;5.786;2022-11-15T18:18:52;11.20;99.90
57242;DHT22;43095;53.302;5.786;2022-11-15T18:21:24;11.20;99.90
57242;DHT22;43095;53.302;5.786;2022-11-15T18:23:53;11.20;99.90
57242;DHT22;43095;53.302;5.786;2022-11-15T18:26:22;11.30;99.90
57242;DHT22;43095;53.302;5.786;2022-11-15T18:28:55;11.20;99.90
57242;DHT22;43095;53.302;5.786;2022-11-15T18:31:27;11.20;99.90
57242;DHT22;43095;53.302;5.786;2022-11-15T18:33:58;11.20;99.90
57242;DHT22;43095;53.302;5.786;2022-11-15T18:36:27;11.30;99.90
57242;DHT22;43095;53.302;5.786;2022-11-15T18:38:56;11.30;99.90
57242;DHT22;43095;53.302;5.786;2022-11-15T18:41:24;11.30;99.90
57242;DHT22;43095;53.302;5.786;2022-11-15T18:43:55;11.40;99.90
57242;DHT22;43095;53.302;5.786;2022-11-15T18:46:25;11.40;99.90
57242;DHT22;43095;53.302;5.786;2022-11-15T18:48:53;11.40;99.90
57242;DHT22;43095;53.302;5.786;2022-11-15T18:51:23;11.40;99.90
57242;DHT22;43095;53.302;5.786;2022-11-15T18:53:56;11.50;99.90
57242;DHT22;43095;53.302;5.786;2022-11-15T18:56:25;11.50;99.90
57242;DHT22;43095;53.302;5.786;2022-11-15T18:58:54;11.50;99.90
57242;DHT22;43095;53.302;5.786;2022-11-15T19:01:27;11.50;99.90
57242;DHT22;43095;53.302;5.786;2022-11-15T19:03:57;11.50;99.90
57242;DHT22;43095;53.302;5.786;2022-11-15T19:06:28;11.50;99.90
57242;DHT22;43095;53.302;5.786;2022-11-15T19:08:57;11.50;99.90
57242;DHT22;43095;53.302;5.786;2022-11-15T19:11:27;11.50;99.90